Time;durP1;ratioP1;P1;durP2;ratioP2;P2;SDS_P1;SDS_P2;PMS_P1;PMS_P2;Temp;Humidity;BMP_temperature;BMP_pressure;BME280_temperature;BME280_humidity;BME280_pressure;Samples;Min_cycle;Max_cycle;Signal;HPM_P1;HPM_P2
2022/01/24 00:02:02;;;;;;;14.30;9.65;;;5.70;99.90;;;;;;4782391;29;20108;-67
2022/01/24 00:04:28;;;;;;;12.10;8.80;;;5.80;99.90;;;;;;4784241;29;21321;-67
2022/01/24 00:06:53;;;;;;;14.15;9.93;;;5.70;99.90;;;;;;4782178;29;20138;-67
2022/01/24 00:09:20;;;;;;;15.75;9.90;;;5.80;99.90;;;;;;4782542;29;20047;-67
2022/01/24 00:17:06;;;;;;;13.85;10.38;;;5.60;99.90;;;;;;4782758;29;20062;-67
2022/01/24 00:27:45;;;;;;;15.82;10.75;;;5.60;99.90;;;;;;4785530;29;20055;-67
2022/01/24 00:30:11;;;;;;;17.52;11.68;;;5.70;99.90;;;;;;4784601;29;20047;-67
2022/01/24 00:32:37;;;;;;;17.70;11.80;;;5.70;99.90;;;;;;4786566;29;20039;-67
2022/01/24 00:35:03;;;;;;;16.42;11.40;;;5.90;99.90;;;;;;4785666;29;20542;-67
2022/01/24 00:37:32;;;;;;;15.68;11.20;;;5.70;99.90;;;;;;4786705;29;20093;-67
2022/01/24 00:39:58;;;;;;;17.00;12.02;;;5.70;99.90;;;;;;4786976;29;20151;-67
2022/01/24 00:45:03;;;;;;;19.25;11.70;;;5.80;99.90;;;;;;4786913;29;20501;-67
2022/01/24 00:47:44;;;;;;;18.10;12.38;;;5.90;99.90;;;;;;4786689;29;20071;-67
2022/01/24 00:55:23;;;;;;;17.40;12.07;;;5.70;99.90;;;;;;4785263;29;20054;-67
2022/01/24 00:57:49;;;;;;;15.90;11.02;;;5.80;99.90;;;;;;4786202;29;20450;-67
2022/01/24 01:00:14;;;;;;;17.98;11.90;;;5.80;99.90;;;;;;4784111;29;20070;-67
2022/01/24 01:02:41;;;;;;;17.52;11.45;;;5.80;99.90;;;;;;4786770;29;20496;-67
2022/01/24 01:08:12;;;;;;;21.63;13.05;;;5.80;99.90;;;;;;4786411;29;20405;-67
2022/01/24 01:18:53;;;;;;;;;;;5.80;99.90;;;;;;4786146;29;20051;-67
2022/01/24 01:21:19;;;;;;;18.23;12.23;;;5.70;99.90;;;;;;4784746;29;20264;-67
2022/01/24 01:23:54;;;;;;;17.10;12.57;;;5.70;99.90;;;;;;4786290;29;20043;-67
2022/01/24 01:28:51;;;;;;;17.67;11.98;;;6.80;99.90;;;;;;4785031;29;20107;-67
2022/01/24 01:31:31;;;;;;;20.67;12.95;;;5.70;99.90;;;;;;4784586;29;20070;-67
2022/01/24 01:53:50;;;;;;;16.38;11.98;;;5.70;99.90;;;;;;4784636;29;20598;-67
2022/01/24 01:56:12;;;;;;;15.73;11.40;;;5.70;99.90;;;;;;4786153;29;20039;-67
2022/01/24 01:58:38;;;;;;;16.80;11.75;;;5.70;99.90;;;;;;4786896;29;20488;-67
2022/01/24 02:01:04;;;;;;;15.65;10.75;;;5.70;99.90;;;;;;4784739;29;20185;-67
2022/01/24 02:03:31;;;;;;;13.85;10.45;;;5.60;99.90;;;;;;4784353;29;20130;-67
2022/01/24 02:05:57;;;;;;;14.65;10.70;;;5.70;99.90;;;;;;4784519;29;20524;-67
2022/01/24 02:08:28;;;;;;;16.60;11.30;;;5.70;99.90;;;;;;4784160;29;20055;-67
2022/01/24 02:10:55;;;;;;;16.00;11.70;;;5.60;99.90;;;;;;4785170;29;20050;-67
2022/01/24 02:13:23;;;;;;;13.80;10.00;;;5.60;99.90;;;;;;4783422;29;20079;-67
2022/01/24 02:16:00;;;;;;;15.32;11.05;;;5.70;99.90;;;;;;4784339;29;20074;-67
2022/01/24 02:21:11;;;;;;;12.73;10.00;;;5.70;99.90;;;;;;4783619;29;20059;-67
2022/01/24 02:23:43;;;;;;;12.82;9.98;;;5.70;99.90;;;;;;4783919;29;20071;-67
2022/01/24 02:26:15;;;;;;;15.48;9.85;;;5.70;99.90;;;;;;4784384;29;20042;-67
2022/01/24 02:28:56;;;;;;;14.48;9.82;;;5.70;99.90;;;;;;4783740;29;20509;-67
2022/01/24 02:31:38;;;;;;;14.30;10.07;;;5.70;99.90;;;;;;4785215;29;20054;-67
2022/01/24 02:34:27;;;;;;;12.15;9.38;;;5.70;99.90;;;;;;4783164;29;20113;-67
2022/01/24 02:36:56;;;;;;;12.85;9.70;;;5.70;99.90;;;;;;4784543;29;20055;-67
2022/01/24 02:50:04;;;;;;;11.93;8.98;;;5.70;99.90;;;;;;4783327;29;20101;-67
2022/01/24 02:52:30;;;;;;;10.82;8.35;;;5.60;99.90;;;;;;4783807;29;20446;-67
2022/01/24 02:54:56;;;;;;;11.80;7.65;;;5.60;99.90;;;;;;4784320;29;20045;-67
2022/01/24 02:57:22;;;;;;;10.48;8.05;;;5.70;99.90;;;;;;4783756;29;20451;-67
2022/01/24 02:59:48;;;;;;;11.82;8.50;;;5.60;99.90;;;;;;4784446;29;20047;-67
2022/01/24 03:02:13;;;;;;;12.20;8.43;;;5.60;99.90;;;;;;4783334;29;20142;-67
2022/01/24 03:04:39;;;;;;;13.35;9.45;;;5.60;99.90;;;;;;4784360;29;20054;-67
2022/01/24 03:07:05;;;;;;;13.25;8.80;;;5.70;99.90;;;;;;4783064;29;20055;-67
2022/01/24 03:09:32;;;;;;;12.73;9.35;;;5.60;99.90;;;;;;4784778;29;20059;-67
2022/01/24 03:12:12;;;;;;;14.50;10.55;;;5.80;99.90;;;;;;4783499;29;20047;-67
2022/01/24 03:14:38;;;;;;;12.57;9.70;;;5.90;99.90;;;;;;4781956;29;20055;-68
2022/01/24 03:17:06;;;;;;;13.85;9.75;;;5.60;99.90;;;;;;4782773;29;20142;-67
2022/01/24 03:19:32;;;;;;;14.80;11.35;;;5.70;99.90;;;;;;4782515;29;20485;-67
2022/01/24 03:21:58;;;;;;;15.95;10.82;;;5.70;99.90;;;;;;4783161;29;20051;-67
2022/01/24 03:24:24;;;;;;;14.90;11.10;;;5.70;99.90;;;;;;4783876;29;20570;-67
2022/01/24 03:26:50;;;;;;;21.33;11.88;;;5.70;99.90;;;;;;4782991;29;20059;-67
2022/01/24 03:29:16;;;;;;;16.75;11.57;;;5.70;99.90;;;;;;4783019;29;20055;-67
2022/01/24 03:31:43;;;;;;;14.50;11.05;;;5.70;99.90;;;;;;4783822;29;20077;-67
2022/01/24 03:34:09;;;;;;;15.75;11.30;;;5.70;99.90;;;;;;4782645;29;20043;-67
2022/01/24 03:36:35;;;;;;;15.85;10.98;;;5.70;99.90;;;;;;4783389;29;20050;-67
2022/01/24 03:39:01;;;;;;;14.82;10.57;;;6.10;99.90;;;;;;4782855;29;20051;-67
2022/01/24 03:41:27;;;;;;;16.35;11.18;;;5.70;99.90;;;;;;4784083;29;20043;-67
2022/01/24 03:43:53;;;;;;;14.70;11.45;;;5.80;99.90;;;;;;4784044;29;20043;-67
2022/01/24 03:48:50;;;;;;;16.13;11.45;;;5.70;99.90;;;;;;4783065;29;20090;-67
2022/01/24 03:51:17;;;;;;;16.02;11.45;;;5.70;99.90;;;;;;4782755;29;20051;-67
2022/01/24 03:53:44;;;;;;;15.50;10.80;;;5.70;99.90;;;;;;4781849;29;20465;-67
2022/01/24 03:56:11;;;;;;;17.20;10.85;;;5.70;99.90;;;;;;4781554;29;20058;-67
2022/01/24 03:58:37;;;;;;;15.63;11.30;;;5.80;99.90;;;;;;4782068;29;20599;-67
2022/01/24 04:01:06;;;;;;;16.42;11.60;;;5.60;99.90;;;;;;4782709;29;20059;-67
2022/01/24 04:03:33;;;;;;;14.35;10.30;;;5.60;99.90;;;;;;4783199;29;20043;-67
2022/01/24 04:05:58;;;;;;;15.73;10.82;;;5.70;99.90;;;;;;4782377;29;20059;-67
2022/01/24 04:08:24;;;;;;;16.42;11.23;;;5.70;99.90;;;;;;4782779;29;20044;-67
2022/01/24 04:10:54;;;;;;;14.85;10.77;;;5.70;99.90;;;;;;4782287;29;20047;-67
2022/01/24 04:13:33;;;;;;;16.02;11.40;;;5.70;99.90;;;;;;4781546;29;20059;-67
2022/01/24 04:18:43;;;;;;;15.13;10.95;;;5.70;99.90;;;;;;4781644;29;20059;-67
2022/01/24 04:23:47;;;;;;;15.50;10.57;;;5.60;99.90;;;;;;4783544;29;20508;-67
2022/01/24 04:26:13;;;;;;;13.80;9.88;;;5.70;99.90;;;;;;4783052;29;20047;-67
2022/01/24 04:28:39;;;;;;;15.43;10.60;;;5.60;99.90;;;;;;4782117;29;20061;-67
2022/01/24 04:31:05;;;;;;;16.63;11.35;;;5.60;99.90;;;;;;4781830;29;20047;-67
2022/01/24 04:33:31;;;;;;;14.65;10.60;;;5.60;99.90;;;;;;4782140;29;20055;-67
2022/01/24 04:35:57;;;;;;;14.05;9.70;;;5.60;99.90;;;;;;4783616;29;20438;-67
2022/01/24 04:38:23;;;;;;;15.02;10.45;;;5.60;99.90;;;;;;4781171;29;20047;-67
2022/01/24 04:40:50;;;;;;;14.07;10.18;;;5.50;99.90;;;;;;4781609;29;20087;-67
2022/01/24 04:43:52;;;;;;;16.25;11.07;;;5.70;99.90;;;;;;4783398;29;20047;-67
2022/01/24 04:51:32;;;;;;;17.02;12.00;;;5.90;99.90;;;;;;4781792;29;20043;-67
2022/01/24 04:56:37;;;;;;;21.92;14.55;;;5.70;99.90;;;;;;4782344;29;20130;-67
2022/01/24 04:59:03;;;;;;;21.42;14.52;;;5.80;99.90;;;;;;4782245;29;20059;-67
2022/01/24 05:01:28;;;;;;;25.08;15.98;;;5.70;99.90;;;;;;4782544;29;20560;-67
2022/01/24 05:03:54;;;;;;;20.60;14.32;;;5.50;99.90;;;;;;4781770;29;20134;-67
2022/01/24 05:06:20;;;;;;;24.02;14.93;;;5.50;99.90;;;;;;4781951;29;20047;-67
2022/01/24 05:08:45;;;;;;;24.88;15.48;;;5.50;99.90;;;;;;4784154;29;20129;-67
2022/01/24 05:11:17;;;;;;;23.38;15.95;;;5.40;99.90;;;;;;4784977;29;20077;-67
2022/01/24 05:24:31;;;;;;;22.88;14.82;;;5.40;99.90;;;;;;4786125;29;20511;-67
2022/01/24 05:26:57;;;;;;;22.25;14.63;;;5.40;99.90;;;;;;4784933;29;20066;-67
2022/01/24 05:29:22;;;;;;;22.40;14.55;;;5.50;99.90;;;;;;4786470;29;20441;-67
2022/01/24 05:31:48;;;;;;;22.85;15.52;;;5.40;99.90;;;;;;4785031;29;20613;-67
2022/01/24 05:34:14;;;;;;;23.92;16.08;;;5.50;99.90;;;;;;4784296;29;20392;-67
2022/01/24 05:36:39;;;;;;;25.60;16.35;;;5.40;99.90;;;;;;4784780;29;20046;-67
2022/01/24 05:39:05;;;;;;;25.75;15.75;;;5.50;99.90;;;;;;4784480;29;20047;-67
2022/01/24 05:41:32;;;;;;;25.58;15.77;;;5.50;99.90;;;;;;4784528;29;20553;-67
2022/01/24 05:43:58;;;;;;;22.27;14.98;;;5.40;99.90;;;;;;4770008;29;20561;-67
2022/01/24 05:46:24;;;;;;;27.90;16.30;;;5.50;99.90;;;;;;4784818;29;20043;-67
2022/01/24 05:48:50;;;;;;;25.50;16.02;;;5.40;99.90;;;;;;4786013;29;20093;-67
2022/01/24 05:51:15;;;;;;;25.55;17.00;;;5.40;99.90;;;;;;4784945;29;20112;-67
2022/01/24 05:53:41;;;;;;;27.35;17.55;;;5.40;99.90;;;;;;4784715;29;20059;-67
2022/01/24 05:56:07;;;;;;;26.73;16.35;;;5.60;99.90;;;;;;4785047;29;20055;-67
2022/01/24 05:58:32;;;;;;;26.92;17.67;;;5.60;99.90;;;;;;4784633;29;20048;-67
2022/01/24 06:00:58;;;;;;;29.38;17.52;;;5.40;99.90;;;;;;4786292;29;20107;-67
2022/01/24 06:03:24;;;;;;;28.73;17.70;;;5.50;99.90;;;;;;4785848;29;20047;-67
2022/01/24 06:05:50;;;;;;;27.85;18.20;;;5.50;99.90;;;;;;4783860;29;20109;-67
2022/01/24 06:08:16;;;;;;;29.75;18.85;;;5.50;99.90;;;;;;4768765;29;20083;-67
2022/01/24 06:10:44;;;;;;;30.70;19.17;;;5.50;99.90;;;;;;4784133;29;20143;-67
2022/01/24 06:13:10;;;;;;;29.98;18.92;;;5.60;99.90;;;;;;4784825;29;20047;-67
2022/01/24 06:15:35;;;;;;;30.95;19.10;;;5.50;99.90;;;;;;4784849;29;20043;-67
2022/01/24 06:18:01;;;;;;;29.23;18.67;;;5.50;99.90;;;;;;4754216;29;20150;-67
2022/01/24 06:20:27;;;;;;;29.85;18.35;;;5.50;99.90;;;;;;4783308;29;20060;-67
2022/01/24 06:22:52;;;;;;;33.63;19.98;;;5.50;99.90;;;;;;4784236;29;20070;-67
2022/01/24 06:25:24;;;;;;;32.78;19.95;;;5.60;99.90;;;;;;4783590;29;20047;-67
2022/01/24 06:27:50;;;;;;;33.90;20.67;;;5.50;99.90;;;;;;4783893;29;20140;-67
2022/01/24 06:30:16;;;;;;;36.83;21.58;;;5.40;99.90;;;;;;4783401;29;20047;-67
2022/01/24 06:32:42;;;;;;;33.60;20.75;;;5.40;99.90;;;;;;4783483;29;20389;-67
2022/01/24 06:35:09;;;;;;;37.95;22.60;;;5.40;99.90;;;;;;4785144;29;20047;-67
2022/01/24 06:37:36;;;;;;;38.33;22.15;;;5.50;99.90;;;;;;4785050;29;20048;-67
2022/01/24 06:40:04;;;;;;;37.85;23.17;;;5.50;99.90;;;;;;4784762;29;20059;-67
2022/01/24 06:42:30;;;;;;;40.22;25.05;;;5.50;99.90;;;;;;4784038;29;20126;-67
2022/01/24 06:44:56;;;;;;;43.67;27.17;;;5.40;99.90;;;;;;4783223;29;20162;-67
2022/01/24 06:47:23;;;;;;;44.20;26.98;;;5.40;99.90;;;;;;4783247;29;20047;-67
2022/01/24 06:49:49;;;;;;;43.03;28.20;;;5.50;99.90;;;;;;4784176;29;20096;-68
2022/01/24 06:52:15;;;;;;;44.25;28.25;;;5.50;99.90;;;;;;4783351;29;20466;-67
2022/01/24 06:54:42;;;;;;;44.35;27.33;;;5.50;99.90;;;;;;4783553;29;20122;-67
2022/01/24 06:57:11;;;;;;;47.35;29.25;;;5.40;99.90;;;;;;4783064;29;20043;-67
2022/01/24 06:59:37;;;;;;;45.85;29.63;;;5.40;99.90;;;;;;4784508;29;20051;-67
2022/01/24 07:02:03;;;;;;;42.17;28.35;;;5.50;99.90;;;;;;4784271;29;20126;-67
2022/01/24 07:04:29;;;;;;;41.92;27.65;;;5.40;99.90;;;;;;4782504;29;20079;-67
2022/01/24 07:06:55;;;;;;;44.45;30.20;;;5.50;99.90;;;;;;4782605;29;20090;-67
2022/01/24 07:09:21;;;;;;;47.83;30.75;;;5.40;99.90;;;;;;4783877;29;20043;-68
2022/01/24 07:11:48;;;;;;;48.45;31.33;;;5.60;99.90;;;;;;4778672;29;20051;-67
2022/01/24 07:14:14;;;;;;;49.25;32.58;;;5.50;99.90;;;;;;4781643;29;20051;-67
2022/01/24 07:19:26;;;;;;;50.67;33.53;;;5.50;99.90;;;;;;4780907;29;20539;-67
2022/01/24 07:21:53;;;;;;;53.35;34.97;;;5.50;99.90;;;;;;4782886;29;20560;-67
2022/01/24 07:24:19;;;;;;;53.10;34.25;;;6.50;99.90;;;;;;4783119;29;20397;-67
2022/01/24 07:26:44;;;;;;;51.15;34.40;;;5.50;99.90;;;;;;4779124;29;20047;-67
2022/01/24 07:29:10;;;;;;;51.58;32.95;;;5.50;99.90;;;;;;4782491;29;20047;-67
2022/01/24 07:31:36;;;;;;;50.47;31.98;;;5.50;99.90;;;;;;4783129;29;20047;-67
2022/01/24 07:34:01;;;;;;;48.53;31.45;;;5.50;99.90;;;;;;4783293;29;20039;-67
2022/01/24 07:36:27;;;;;;;44.90;30.70;;;5.50;99.90;;;;;;4781061;29;20691;-67
2022/01/24 07:38:53;;;;;;;49.28;32.63;;;5.50;99.90;;;;;;4781915;29;20047;-67
2022/01/24 07:41:43;;;;;;;50.58;32.58;;;5.60;99.90;;;;;;4768030;29;20158;-67
2022/01/24 07:44:08;;;;;;;50.97;32.97;;;5.50;99.90;;;;;;4783738;29;20051;-67
2022/01/24 07:46:34;;;;;;;45.95;30.80;;;5.80;99.90;;;;;;4779837;29;20073;-67
2022/01/24 07:49:06;;;;;;;52.63;31.85;;;5.50;99.90;;;;;;4782091;29;20400;-67
2022/01/24 07:51:32;;;;;;;49.83;32.20;;;5.60;99.90;;;;;;4782909;29;20039;-67
2022/01/24 07:53:57;;;;;;;51.88;33.45;;;5.50;99.90;;;;;;4782079;29;20058;-67
2022/01/24 07:56:23;;;;;;;52.30;34.20;;;5.60;99.90;;;;;;4784245;29;20039;-67
2022/01/24 07:58:49;;;;;;;53.55;34.85;;;5.50;99.90;;;;;;4781100;29;20521;-67
2022/01/24 08:01:15;;;;;;;52.47;34.80;;;5.50;99.90;;;;;;4783100;29;20515;-67
2022/01/24 08:03:42;;;;;;;51.92;34.70;;;5.60;99.90;;;;;;4781981;29;20086;-67
2022/01/24 08:06:08;;;;;;;53.70;34.65;;;5.50;99.90;;;;;;4781187;29;20110;-67
2022/01/24 08:08:34;;;;;;;52.33;35.30;;;5.50;99.90;;;;;;4781744;29;20122;-67
2022/01/24 08:10:59;;;;;;;53.38;34.95;;;5.50;99.90;;;;;;4782251;29;20134;-67
2022/01/24 08:13:25;;;;;;;55.05;36.30;;;5.50;99.90;;;;;;4781929;29;20047;-67
2022/01/24 08:15:51;;;;;;;54.92;34.45;;;5.50;99.90;;;;;;4782056;29;20059;-67
2022/01/24 08:18:17;;;;;;;53.28;34.92;;;5.50;99.90;;;;;;4781884;29;20059;-67
2022/01/24 08:20:42;;;;;;;58.92;34.25;;;5.50;99.90;;;;;;4780274;29;20098;-67
2022/01/24 08:23:09;;;;;;;51.25;33.53;;;5.50;99.90;;;;;;4781442;29;20047;-67
2022/01/24 08:25:35;;;;;;;54.08;34.90;;;5.50;99.90;;;;;;4781207;29;20051;-67
2022/01/24 08:28:02;;;;;;;52.78;34.25;;;5.60;99.90;;;;;;4781895;29;20458;-67
2022/01/24 08:30:28;;;;;;;54.17;35.50;;;5.50;99.90;;;;;;4780136;29;20496;-67
2022/01/24 08:32:54;;;;;;;54.90;34.78;;;5.50;99.90;;;;;;4780985;29;20040;-67
2022/01/24 08:35:20;;;;;;;56.40;35.20;;;5.50;99.90;;;;;;4782359;29;20632;-67
2022/01/24 08:37:46;;;;;;;48.85;32.25;;;5.60;99.90;;;;;;4781949;29;20051;-68
2022/01/24 08:40:24;;;;;;;52.58;33.30;;;5.60;99.90;;;;;;4782619;29;20158;-67
2022/01/24 08:42:58;;;;;;;54.63;34.58;;;5.60;99.90;;;;;;4783222;29;20039;-67
2022/01/24 08:48:11;;;;;;;51.90;33.50;;;5.60;99.90;;;;;;4785765;29;20417;-67
2022/01/24 08:50:37;;;;;;;51.45;32.72;;;5.60;99.90;;;;;;4787568;29;20705;-67
2022/01/24 08:53:03;;;;;;;52.15;32.33;;;5.60;99.90;;;;;;4784810;29;20067;-67
2022/01/24 08:55:34;;;;;;;47.10;30.30;;;5.60;99.90;;;;;;4786549;29;20082;-67
2022/01/24 08:58:02;;;;;;;52.05;32.47;;;5.60;99.90;;;;;;4785622;29;20043;-67
2022/01/24 09:00:28;;;;;;;51.67;33.90;;;5.60;99.90;;;;;;4784111;29;20128;-67
2022/01/24 09:02:54;;;;;;;53.22;33.65;;;5.60;99.90;;;;;;4785510;29;20100;-67
2022/01/24 09:05:24;;;;;;;48.67;32.53;;;5.80;99.90;;;;;;4785978;29;20047;-67
2022/01/24 09:07:53;;;;;;;53.15;33.10;;;5.60;99.90;;;;;;4786241;29;20051;-67
2022/01/24 09:10:23;;;;;;;54.03;34.35;;;5.70;99.90;;;;;;4783417;29;20096;-67
2022/01/24 09:12:49;;;;;;;48.00;31.55;;;5.70;99.90;;;;;;4784521;29;20138;-67
2022/01/24 09:15:15;;;;;;;52.53;33.80;;;5.70;99.90;;;;;;4782179;29;20126;-67
2022/01/24 09:17:43;;;;;;;50.13;32.63;;;5.60;99.90;;;;;;4780728;29;20123;-67
2022/01/24 09:20:10;;;;;;;52.72;33.47;;;5.60;99.90;;;;;;4780372;29;20067;-68
2022/01/24 09:22:36;;;;;;;51.45;32.90;;;5.70;99.90;;;;;;4785851;29;20043;-67
2022/01/24 09:25:04;;;;;;;53.22;34.00;;;5.70;99.90;;;;;;4783032;29;20777;-67
2022/01/24 09:27:30;;;;;;;49.20;32.92;;;5.70;99.90;;;;;;4782581;29;20054;-67
2022/01/24 09:29:57;;;;;;;52.35;33.78;;;5.90;99.90;;;;;;4783805;29;20063;-67
2022/01/24 09:32:24;;;;;;;59.40;35.58;;;5.60;99.90;;;;;;4783979;29;20036;-67
2022/01/24 09:34:49;;;;;;;61.67;36.53;;;5.70;99.90;;;;;;4784070;29;20451;-67
2022/01/24 09:37:15;;;;;;;56.08;35.35;;;5.70;99.90;;;;;;4768649;29;20050;-67
2022/01/24 09:39:41;;;;;;;52.75;34.83;;;5.70;99.90;;;;;;4781410;29;20071;-67
2022/01/24 09:42:07;;;;;;;56.22;35.90;;;5.90;99.90;;;;;;4782740;29;20059;-67
2022/01/24 09:44:34;;;;;;;58.95;37.20;;;5.70;99.90;;;;;;4781910;29;20063;-67
2022/01/24 09:47:00;;;;;;;59.58;37.72;;;5.70;99.90;;;;;;4782553;29;20047;-67
2022/01/24 09:49:25;;;;;;;55.75;36.78;;;5.70;99.90;;;;;;4781719;29;20712;-67
2022/01/24 09:51:51;;;;;;;53.50;34.70;;;5.70;99.90;;;;;;4782607;29;20116;-67
2022/01/24 09:54:17;;;;;;;55.95;37.00;;;5.70;99.90;;;;;;4783239;29;20127;-67
2022/01/24 09:56:44;;;;;;;58.42;36.63;;;5.70;99.90;;;;;;4783413;29;20086;-67
2022/01/24 09:59:09;;;;;;;56.45;34.92;;;5.70;99.90;;;;;;4782903;29;20047;-67
2022/01/24 10:01:35;;;;;;;56.33;35.78;;;5.70;99.90;;;;;;4781150;29;20070;-67
2022/01/24 10:04:20;;;;;;;58.38;36.03;;;5.70;99.90;;;;;;4782578;29;20112;-67
2022/01/24 10:07:13;;;;;;;54.08;35.55;;;5.90;99.90;;;;;;4784098;29;20184;-67
2022/01/24 10:09:40;;;;;;;47.75;31.88;;;5.80;99.90;;;;;;4780908;29;20099;-67
2022/01/24 10:12:17;;;;;;;49.38;31.98;;;5.80;99.90;;;;;;4783039;29;20063;-67
2022/01/24 10:17:36;;;;;;;40.70;27.48;;;5.80;99.90;;;;;;4781309;29;20120;-67
2022/01/24 10:20:21;;;;;;;38.58;26.90;;;5.80;99.90;;;;;;4782203;29;20513;-68
2022/01/24 10:23:24;;;;;;;37.28;25.58;;;5.90;99.90;;;;;;4781091;29;20122;-67
2022/01/24 10:26:03;;;;;;;36.58;25.48;;;5.80;99.90;;;;;;4781369;29;20165;-67
2022/01/24 10:28:38;;;;;;;31.00;22.92;;;6.10;99.90;;;;;;4781983;29;20374;-67
2022/01/24 10:31:08;;;;;;;32.58;24.05;;;5.90;99.90;;;;;;4781735;29;20456;-67
2022/01/24 10:33:53;;;;;;;30.58;23.42;;;5.90;99.90;;;;;;4781694;29;20123;-67
2022/01/24 10:36:38;;;;;;;31.52;23.48;;;5.90;99.90;;;;;;4781798;29;20069;-68
2022/01/24 10:45:16;;;;;;;28.27;21.20;;;6.10;99.90;;;;;;4783966;29;20043;-67
2022/01/24 10:47:46;;;;;;;25.60;19.98;;;5.90;99.90;;;;;;4783545;29;20059;-67
2022/01/24 10:50:29;;;;;;;28.55;21.30;;;6.00;99.90;;;;;;4782239;29;20129;-68
2022/01/24 10:53:08;;;;;;;24.92;20.35;;;5.90;99.90;;;;;;4782118;29;20150;-67
2022/01/24 10:55:34;;;;;;;28.92;21.23;;;6.00;99.90;;;;;;4781842;29;20071;-67
2022/01/24 10:58:17;;;;;;;28.45;21.00;;;6.00;99.90;;;;;;4782412;29;20430;-67
2022/01/24 11:00:45;;;;;;;28.95;21.65;;;6.00;99.90;;;;;;4776982;29;20043;-67
2022/01/24 11:03:19;;;;;;;27.73;21.83;;;6.00;99.90;;;;;;4779212;29;20051;-67
2022/01/24 11:05:46;;;;;;;28.65;21.25;;;6.00;99.90;;;;;;4781188;29;20056;-67
2022/01/24 11:08:14;;;;;;;28.70;21.50;;;6.00;99.90;;;;;;4782294;29;20142;-67
2022/01/24 11:10:45;;;;;;;26.85;21.10;;;6.00;99.90;;;;;;4782638;29;20116;-67
2022/01/24 11:13:12;;;;;;;26.67;21.17;;;6.10;99.90;;;;;;4782335;29;20051;-67
2022/01/24 11:15:54;;;;;;;27.73;20.33;;;6.20;99.90;;;;;;4782457;29;20055;-67
2022/01/24 11:18:21;;;;;;;28.23;21.85;;;6.20;99.90;;;;;;4779536;29;20059;-67
2022/01/24 11:20:49;;;;;;;26.20;21.77;;;6.00;99.90;;;;;;4781204;29;20063;-67
2022/01/24 11:23:20;;;;;;;26.80;21.98;;;6.10;99.90;;;;;;4782926;29;20505;-67
2022/01/24 11:25:48;;;;;;;27.83;21.98;;;6.10;99.90;;;;;;4782122;29;20083;-67
2022/01/24 11:28:14;;;;;;;29.98;22.70;;;6.10;99.90;;;;;;4763493;29;20051;-67
2022/01/24 11:31:01;;;;;;;29.58;23.20;;;6.10;99.90;;;;;;4781784;29;20065;-67
2022/01/24 11:33:37;;;;;;;27.55;23.25;;;6.10;99.90;;;;;;4781507;29;20043;-67
2022/01/24 11:36:07;;;;;;;27.65;22.20;;;6.10;99.90;;;;;;4783142;29;20043;-67
2022/01/24 11:38:44;;;;;;;29.73;23.40;;;6.10;99.90;;;;;;4780935;29;20044;-67
2022/01/24 11:41:22;;;;;;;30.58;24.08;;;6.10;99.90;;;;;;4779923;29;20043;-68
2022/01/24 11:43:54;;;;;;;26.65;21.52;;;6.10;99.90;;;;;;4780522;29;20054;-67
2022/01/24 11:46:41;;;;;;;25.65;22.05;;;6.10;99.90;;;;;;4780415;29;20036;-67
2022/01/24 11:49:10;;;;;;;28.15;21.38;;;6.10;99.90;;;;;;4782358;29;20098;-67
2022/01/24 11:51:38;;;;;;;27.70;21.88;;;6.00;99.90;;;;;;4781332;29;20122;-67
2022/01/24 11:54:29;;;;;;;25.23;20.60;;;6.00;99.90;;;;;;4782963;29;20055;-67
2022/01/24 11:57:22;;;;;;;25.20;20.10;;;6.00;99.90;;;;;;4781581;29;20393;-67
2022/01/24 11:59:50;;;;;;;22.92;19.25;;;6.00;99.90;;;;;;4782146;29;20136;-67
2022/01/24 12:02:23;;;;;;;22.15;18.20;;;6.00;99.90;;;;;;4781988;29;20127;-67
2022/01/24 12:04:52;;;;;;;24.45;20.80;;;6.00;99.90;;;;;;4780988;29;20047;-67
2022/01/24 12:07:31;;;;;;;25.00;20.00;;;6.00;99.90;;;;;;4782518;29;20252;-67
2022/01/24 12:10:22;;;;;;;22.40;18.83;;;6.00;99.90;;;;;;4782033;29;20065;-67
2022/01/24 12:12:51;;;;;;;23.73;18.75;;;6.00;99.90;;;;;;4781396;29;20044;-67
2022/01/24 12:15:38;;;;;;;23.02;18.85;;;6.00;99.90;;;;;;4782833;29;21341;-67
2022/01/24 12:18:11;;;;;;;22.40;17.33;;;6.10;99.90;;;;;;4785144;29;20449;-67
2022/01/24 12:20:37;;;;;;;21.55;18.05;;;6.10;99.90;;;;;;4782735;29;20066;-67
2022/01/24 12:23:24;;;;;;;20.88;17.48;;;6.00;99.90;;;;;;4783989;29;20436;-67
2022/01/24 12:26:02;;;;;;;22.83;17.52;;;6.00;99.90;;;;;;4782890;29;20106;-67
2022/01/24 12:28:44;;;;;;;23.35;18.98;;;6.10;99.90;;;;;;4769205;29;20117;-67
2022/01/24 12:31:11;;;;;;;22.80;18.63;;;6.30;99.90;;;;;;4786418;29;20035;-67
2022/01/24 12:34:09;;;;;;;24.05;20.38;;;6.10;99.90;;;;;;4785446;29;20098;-67
2022/01/24 12:36:47;;;;;;;25.05;19.55;;;6.10;99.90;;;;;;4782274;29;20066;-67
2022/01/24 12:39:17;;;;;;;26.52;21.13;;;6.30;99.90;;;;;;4782692;29;20074;-67
2022/01/24 12:41:54;;;;;;;25.08;20.73;;;6.00;99.90;;;;;;4783744;29;20059;-67
2022/01/24 12:47:04;;;;;;;25.23;21.17;;;6.10;99.90;;;;;;4782730;29;20509;-67
2022/01/24 12:49:31;;;;;;;25.55;21.15;;;6.10;99.90;;;;;;4785454;29;20103;-67
2022/01/24 12:52:02;;;;;;;25.70;21.30;;;6.10;99.90;;;;;;4784728;29;20086;-67
2022/01/24 12:54:30;;;;;;;27.80;22.67;;;6.10;99.90;;;;;;4784555;29;20123;-67
2022/01/24 12:57:09;;;;;;;25.15;21.65;;;6.10;99.90;;;;;;4782765;29;20115;-67
2022/01/24 12:59:36;;;;;;;25.95;22.02;;;6.10;99.90;;;;;;4784475;29;20385;-67
2022/01/24 13:02:05;;;;;;;25.58;20.13;;;6.10;99.90;;;;;;4798374;29;20084;-67
2022/01/24 13:04:40;;;;;;;21.65;18.45;;;6.00;99.90;;;;;;4785451;29;20082;-67
2022/01/24 13:07:08;;;;;;;24.20;19.40;;;6.10;99.90;;;;;;4784619;29;20051;-67
2022/01/24 13:09:35;;;;;;;22.63;18.13;;;6.10;99.90;;;;;;4784619;29;20472;-67
2022/01/24 13:12:05;;;;;;;23.48;18.83;;;6.10;99.90;;;;;;4784739;29;20100;-67
2022/01/24 13:14:49;;;;;;;23.52;19.55;;;6.10;99.90;;;;;;4769172;29;20761;-68
2022/01/24 13:23:23;;;;;;;29.45;22.83;;;6.10;99.90;;;;;;4761904;30;20048;-67
2022/01/24 13:25:49;;;;;;;29.73;22.42;;;6.10;99.90;;;;;;4778841;29;20062;-67
2022/01/24 13:28:18;;;;;;;29.08;23.83;;;6.10;99.90;;;;;;4783616;29;20043;-67
2022/01/24 13:31:03;;;;;;;28.58;23.38;;;6.10;99.90;;;;;;4783567;29;20162;-67
2022/01/24 13:33:31;;;;;;;26.17;21.27;;;6.00;99.90;;;;;;4783381;29;20134;-67
2022/01/24 13:35:59;;;;;;;23.13;19.13;;;5.90;99.90;;;;;;4782263;29;20070;-67
2022/01/24 13:38:31;;;;;;;23.92;19.08;;;5.90;99.90;;;;;;4783821;29;20039;-68
2022/01/24 13:41:05;;;;;;;25.75;20.92;;;5.80;99.90;;;;;;4783045;29;20047;-67
2022/01/24 13:43:44;;;;;;;25.08;21.05;;;5.80;99.90;;;;;;4783555;29;20750;-67
2022/01/24 13:46:13;;;;;;;24.98;20.50;;;5.80;99.90;;;;;;4783542;29;20048;-67
2022/01/24 13:48:40;;;;;;;28.05;22.98;;;5.70;99.90;;;;;;4785223;29;20431;-67
2022/01/24 13:51:06;;;;;;;28.05;22.40;;;5.70;99.90;;;;;;4782445;29;20142;-67
2022/01/24 13:53:45;;;;;;;31.65;23.70;;;5.80;99.90;;;;;;4782886;29;20098;-67
2022/01/24 13:56:18;;;;;;;26.90;21.77;;;5.70;99.90;;;;;;4782149;29;20070;-67
2022/01/24 13:59:08;;;;;;;25.13;19.85;;;5.80;99.90;;;;;;4782679;29;20055;-67
2022/01/24 14:01:36;;;;;;;27.33;21.90;;;5.70;99.90;;;;;;4782582;29;20047;-67
2022/01/24 14:04:08;;;;;;;31.17;24.65;;;5.70;99.90;;;;;;4780967;29;20066;-67
2022/01/24 14:06:37;;;;;;;29.45;22.25;;;5.70;99.90;;;;;;4781711;29;20705;-68
2022/01/24 14:09:11;;;;;;;33.53;23.55;;;5.70;99.90;;;;;;4782658;29;20059;-68
2022/01/24 14:11:46;;;;;;;29.63;22.77;;;5.70;99.90;;;;;;4781050;29;20108;-67
2022/01/24 14:14:17;;;;;;;27.15;21.80;;;5.90;99.90;;;;;;4782719;29;20063;-68
2022/01/24 14:17:11;;;;;;;26.85;20.67;;;5.70;99.90;;;;;;4781136;29;20561;-67
2022/01/24 14:19:37;;;;;;;26.98;22.17;;;5.70;99.90;;;;;;4781222;29;20071;-67
2022/01/24 14:22:09;;;;;;;29.83;23.58;;;5.60;99.90;;;;;;4783010;29;20062;-67
2022/01/24 14:25:01;;;;;;;33.05;26.00;;;5.80;99.90;;;;;;4781781;29;20146;-67
2022/01/24 14:27:45;;;;;;;29.55;23.67;;;5.70;99.90;;;;;;4780620;29;20106;-67
2022/01/24 14:30:19;;;;;;;32.00;24.42;;;5.70;99.90;;;;;;4784118;29;20065;-68
2022/01/24 14:33:17;;;;;;;29.00;23.05;;;5.70;99.90;;;;;;4782769;29;20047;-67
2022/01/24 14:35:54;;;;;;;32.28;24.95;;;5.70;99.90;;;;;;4780970;29;20043;-67
2022/01/24 14:38:34;;;;;;;32.22;24.45;;;5.70;99.90;;;;;;4780659;29;20588;-68
2022/01/24 14:41:09;;;;;;;30.90;23.92;;;5.70;99.90;;;;;;4779421;29;20043;-67
2022/01/24 14:46:28;;;;;;;31.58;24.48;;;5.60;99.90;;;;;;4781316;29;20043;-67
2022/01/24 14:49:00;;;;;;;30.65;25.33;;;5.60;99.90;;;;;;4767080;29;20081;-67
2022/01/24 14:51:29;;;;;;;31.42;24.73;;;5.60;99.90;;;;;;4784273;29;20507;-67
2022/01/24 14:53:57;;;;;;;31.85;24.73;;;5.60;99.90;;;;;;4781455;29;20053;-68